createdAt,value
2019-04-06T00:02:32.809Z,36.33
2019-04-06T00:05:14.410Z,38.07
2019-04-06T00:07:56.245Z,38.50
2019-04-06T00:10:37.626Z,36.47
2019-04-06T00:13:19.104Z,36.53
2019-04-06T00:16:00.539Z,41.17
2019-04-06T00:18:42.461Z,41.93
2019-04-06T00:21:23.695Z,39.00
2019-04-06T00:24:04.461Z,40.17
2019-04-06T00:26:45.923Z,37.43
2019-04-06T00:29:27.314Z,41.10
2019-04-06T00:34:54.256Z,39.23
2019-04-06T00:37:35.470Z,37.10
2019-04-06T00:40:17.015Z,39.27
2019-04-06T00:42:58.666Z,38.77
2019-04-06T00:45:40.047Z,39.83
2019-04-06T00:48:21.698Z,35.10
2019-04-06T00:51:02.372Z,36.13
2019-04-06T00:53:31.935Z,46.33
2019-04-06T00:56:20.611Z,50.07
2019-04-06T00:59:12.200Z,41.33
2019-04-06T01:01:52.897Z,41.17
2019-04-06T01:04:33.662Z,36.43
2019-04-06T01:07:14.366Z,39.20
2019-04-06T01:09:55.823Z,43.00
2019-04-06T01:12:37.358Z,42.30
2019-04-06T01:15:18.894Z,43.50
2019-04-06T01:18:00.458Z,44.77
2019-04-06T01:20:42.126Z,49.73
2019-04-06T01:23:23.675Z,45.57
2019-04-06T01:26:07.380Z,45.90
2019-04-06T01:28:47.152Z,47.23
2019-04-06T01:31:27.803Z,48.07
2019-04-06T01:34:08.666Z,47.47
2019-04-06T01:36:49.428Z,46.30
2019-04-06T01:39:30.130Z,47.43
2019-04-06T01:42:11.755Z,50.67
2019-04-06T01:44:53.432Z,43.93
2019-04-06T01:47:34.871Z,41.50
2019-04-06T01:50:16.312Z,40.70
2019-04-06T01:52:57.743Z,45.00
2019-04-06T01:55:39.279Z,40.83
2019-04-06T01:58:19.959Z,38.63
2019-04-06T02:04:11.798Z,47.53
2019-04-06T02:06:53.242Z,44.57
2019-04-06T02:09:34.853Z,44.40
2019-04-06T02:12:15.628Z,46.37
2019-04-06T02:14:56.331Z,50.13
2019-04-06T02:17:37.242Z,42.90
2019-04-06T02:20:18.889Z,43.50
2019-04-06T02:23:00.307Z,45.63
2019-04-06T02:25:41.169Z,49.20
2019-04-06T02:28:22.744Z,44.57
2019-04-06T02:31:25.262Z,45.23
2019-04-06T02:37:34.542Z,41.50
2019-04-06T02:43:03.487Z,47.53
2019-04-06T02:45:44.553Z,44.63
2019-04-06T02:48:26.494Z,44.13
2019-04-06T02:51:07.913Z,43.33
2019-04-06T02:53:48.998Z,44.70
2019-04-06T02:56:44.882Z,46.03
2019-04-06T02:59:12.996Z,45.27
2019-04-06T03:01:54.614Z,43.43
2019-04-06T03:04:24.223Z,43.33
2019-04-06T03:06:53.733Z,44.10
2019-04-06T03:09:23.275Z,46.77
2019-04-06T03:11:52.869Z,41.70
2019-04-06T03:14:22.683Z,44.67
2019-04-06T03:16:52.210Z,47.57
2019-04-06T03:19:21.938Z,49.57
2019-04-06T03:21:51.610Z,47.87
2019-04-06T03:24:21.116Z,42.40
2019-04-06T03:27:00.657Z,49.30
2019-04-06T03:29:21.818Z,46.33
2019-04-06T03:31:51.620Z,45.83
2019-04-06T03:34:22.509Z,43.63
2019-04-06T03:36:53.002Z,41.67
2019-04-06T03:39:22.584Z,46.77
2019-04-06T03:41:52.078Z,47.90
2019-04-06T03:44:21.604Z,45.30
2019-04-06T03:46:51.231Z,45.57
2019-04-06T03:49:20.780Z,47.93
2019-04-06T03:51:50.331Z,47.13
2019-04-06T03:54:19.878Z,49.23
2019-04-06T03:56:49.565Z,48.00
2019-04-06T03:59:19.091Z,47.40
2019-04-06T04:01:48.731Z,44.50
2019-04-06T04:04:18.196Z,44.03
2019-04-06T04:06:48.673Z,47.70
2019-04-06T04:09:18.222Z,45.30
2019-04-06T04:11:47.678Z,44.50
2019-04-06T04:14:17.226Z,47.40
2019-04-06T04:16:46.776Z,50.83
2019-04-06T04:19:16.212Z,48.50
2019-04-06T04:21:45.681Z,48.53
2019-04-06T04:24:15.217Z,47.13
2019-04-06T04:26:44.765Z,50.57
2019-04-06T04:29:14.283Z,45.53
2019-04-06T04:31:43.843Z,49.37
2019-04-06T04:34:13.330Z,48.30
2019-04-06T04:36:42.873Z,49.23
2019-04-06T04:39:12.559Z,47.77
2019-04-06T04:41:42.496Z,45.37
2019-04-06T04:44:12.303Z,51.87
2019-04-06T04:46:41.877Z,46.00
2019-04-06T04:49:11.317Z,47.37
2019-04-06T04:51:40.862Z,50.17
2019-04-06T04:54:10.375Z,46.10
2019-04-06T04:56:39.821Z,48.13
2019-04-06T04:59:09.762Z,53.30
2019-04-06T05:01:39.275Z,50.10
2019-04-06T05:04:09.282Z,49.33
2019-04-06T05:06:38.703Z,44.73
2019-04-06T05:09:08.627Z,48.17
2019-04-06T05:11:38.376Z,47.53
2019-04-06T05:14:43.057Z,52.90
2019-04-06T05:17:12.576Z,48.13
2019-04-06T05:19:42.148Z,48.87
2019-04-06T05:22:11.750Z,50.13
2019-04-06T05:24:41.210Z,52.43
2019-04-06T05:27:10.679Z,46.17
2019-04-06T05:29:40.153Z,50.57
2019-04-06T05:32:09.678Z,50.88
2019-04-06T05:34:39.173Z,49.40
2019-04-06T05:37:15.658Z,49.80
2019-04-06T05:39:45.171Z,54.10
2019-04-06T05:42:14.607Z,50.23
2019-04-06T05:44:44.161Z,49.43
2019-04-06T05:47:13.848Z,51.87
2019-04-06T05:49:43.366Z,45.20
2019-04-06T05:52:12.822Z,50.80
2019-04-06T05:54:42.306Z,48.87
2019-04-06T05:57:11.896Z,55.77
2019-04-06T05:59:41.615Z,49.23
2019-04-06T06:02:11.300Z,52.40
2019-04-06T06:04:41.434Z,52.17
2019-04-06T06:07:11.558Z,52.63
2019-04-06T06:09:41.042Z,46.53
2019-04-06T06:12:12.082Z,56.65
2019-04-06T06:14:41.716Z,57.20
2019-04-06T06:17:11.274Z,55.93
2019-04-06T06:19:40.839Z,49.47
2019-04-06T06:22:10.420Z,53.23
2019-04-06T06:24:39.928Z,54.00
2019-04-06T06:27:09.478Z,56.63
2019-04-06T06:29:39.057Z,50.00
2019-04-06T06:32:08.546Z,52.30
2019-04-06T06:34:38.219Z,52.53
2019-04-06T06:37:07.775Z,51.77
2019-04-06T06:39:37.250Z,51.83
2019-04-06T06:42:06.695Z,55.40
2019-04-06T06:44:36.229Z,58.50
2019-04-06T06:47:05.694Z,57.03
2019-04-06T06:49:35.193Z,57.13
2019-04-06T06:52:04.631Z,60.03
2019-04-06T06:54:34.539Z,55.73
2019-04-06T06:57:03.991Z,60.95
2019-04-06T06:59:33.509Z,62.23
2019-04-06T07:02:02.994Z,58.50
2019-04-06T07:04:32.467Z,59.80
2019-04-06T07:07:01.937Z,60.30
2019-04-06T07:09:31.403Z,59.43
2019-04-06T07:12:00.871Z,57.23
2019-04-06T07:14:30.562Z,61.27
2019-04-06T07:17:00.149Z,58.27
2019-04-06T07:19:29.721Z,56.83
2019-04-06T07:21:59.244Z,53.90
2019-04-06T07:24:28.770Z,57.80
2019-04-06T07:26:58.279Z,59.30
2019-04-06T07:29:27.842Z,53.57
2019-04-06T07:31:57.288Z,54.57
2019-04-06T07:34:26.778Z,52.30
2019-04-06T07:36:56.253Z,55.37
2019-04-06T07:39:25.896Z,47.63
2019-04-06T07:41:55.470Z,52.53
2019-04-06T07:44:24.969Z,52.57
2019-04-06T07:46:54.531Z,53.33
2019-04-06T07:49:24.721Z,48.23
2019-04-06T07:51:54.260Z,49.13
2019-04-06T07:54:23.836Z,50.77
2019-04-06T07:56:53.388Z,50.00
2019-04-06T07:59:22.858Z,50.70
2019-04-06T08:01:52.472Z,43.27
2019-04-06T08:04:21.930Z,48.50
2019-04-06T08:06:51.457Z,45.67
2019-04-06T08:09:20.998Z,45.30
2019-04-06T08:11:50.452Z,45.47
2019-04-06T08:14:19.997Z,48.60
2019-04-06T08:16:49.798Z,43.33
2019-04-06T08:19:19.521Z,42.70
2019-04-06T08:21:49.134Z,43.63
2019-04-06T08:24:18.687Z,38.83
2019-04-06T08:26:48.191Z,44.77
2019-04-06T08:29:17.634Z,41.67
2019-04-06T08:31:47.076Z,48.33
2019-04-06T08:34:16.539Z,43.93
2019-04-06T08:36:46.088Z,45.87
2019-04-06T08:39:15.602Z,41.70
2019-04-06T08:41:45.077Z,42.47
2019-04-06T08:44:14.520Z,40.97
2019-04-06T08:46:44.500Z,40.30
2019-04-06T08:51:51.752Z,39.40
2019-04-06T08:54:32.458Z,43.10
2019-04-06T08:57:13.676Z,37.07
2019-04-06T08:59:55.023Z,37.97
2019-04-06T09:02:35.852Z,39.97
2019-04-06T09:05:17.542Z,37.80
2019-04-06T09:07:58.966Z,35.90
2019-04-06T09:10:40.331Z,36.70
2019-04-06T09:13:21.307Z,39.70
2019-04-06T09:16:03.961Z,40.90
2019-04-06T09:18:44.919Z,40.00
2019-04-06T09:21:26.279Z,34.40
2019-04-06T09:24:07.678Z,34.13
2019-04-06T09:26:49.266Z,39.13
2019-04-06T09:29:29.993Z,36.73
2019-04-06T09:32:11.637Z,35.13
2019-04-06T09:34:41.335Z,41.50
2019-04-06T09:37:30.083Z,38.60
2019-04-06T09:39:59.669Z,39.73
2019-04-06T09:42:48.234Z,41.57
2019-04-06T09:45:55.617Z,33.17
2019-04-06T09:49:03.048Z,35.90
2019-04-06T09:52:10.498Z,39.00
2019-04-06T09:55:17.917Z,37.47
2019-04-06T09:58:26.852Z,41.57
2019-04-06T10:01:15.466Z,38.23
2019-04-06T10:04:01.399Z,37.07
2019-04-06T10:06:56.522Z,39.47
2019-04-06T10:09:52.848Z,39.03
2019-04-06T10:13:00.864Z,41.20
2019-04-06T10:15:57.553Z,39.60
2019-04-06T10:18:58.925Z,38.23
2019-04-06T10:21:59.012Z,39.40
2019-04-06T10:25:01.853Z,36.27
2019-04-06T10:30:54.192Z,39.03
2019-04-06T10:33:57.409Z,40.03
2019-04-06T10:36:59.353Z,40.60
2019-04-06T10:39:45.236Z,41.80
2019-04-06T10:42:45.478Z,40.12
2019-04-06T10:45:39.641Z,41.65
2019-04-06T10:51:14.306Z,40.40
2019-04-06T10:54:21.750Z,38.25
2019-04-06T10:57:29.222Z,38.23
2019-04-06T11:00:36.563Z,37.33
2019-04-06T11:03:30.039Z,39.10
2019-04-06T11:06:20.524Z,42.40
2019-04-06T11:09:01.871Z,43.68
2019-04-06T11:14:33.543Z,39.25
2019-04-06T11:17:34.901Z,44.45
2019-04-06T11:20:25.719Z,37.17
2019-04-06T11:26:17.991Z,39.57
2019-04-06T11:29:20.578Z,43.68
2019-04-06T11:32:12.142Z,40.65
2019-04-06T11:35:14.977Z,39.40
2019-04-06T11:37:57.052Z,37.73
2019-04-06T11:44:13.369Z,39.65
2019-04-06T11:47:12.142Z,39.05
2019-04-06T11:50:00.361Z,37.05
2019-04-06T11:53:07.874Z,39.65
2019-04-06T11:59:05.276Z,36.55
2019-04-06T12:02:31.649Z,38.73
2019-04-06T12:05:34.665Z,36.63
2019-04-06T12:14:20.156Z,36.75
2019-04-06T12:17:26.525Z,33.63
2019-04-06T12:23:19.977Z,37.05
2019-04-06T12:31:59.949Z,39.40
2019-04-06T12:35:02.960Z,39.10
2019-04-06T12:37:46.760Z,42.08
2019-04-06T12:46:16.441Z,39.53
2019-04-06T12:49:22.482Z,37.70
2019-04-06T13:04:14.809Z,35.48
2019-04-06T13:10:23.586Z,31.00
2019-04-06T13:13:30.928Z,33.42
2019-04-06T13:16:38.234Z,29.07
2019-04-06T13:19:45.502Z,27.25
2019-04-06T13:22:52.884Z,26.30
2019-04-06T13:26:00.671Z,23.62
2019-04-06T13:29:08.414Z,24.10
2019-04-06T13:32:16.266Z,26.25
2019-04-06T13:35:05.723Z,23.73
2019-04-06T13:38:14.020Z,26.42
2019-04-06T13:41:22.874Z,22.82
2019-04-06T13:44:19.378Z,21.93
2019-04-06T13:47:15.118Z,23.25
2019-04-06T13:50:22.818Z,23.50
2019-04-06T13:53:30.490Z,23.98
2019-04-06T13:56:37.921Z,26.60
2019-04-06T13:59:45.631Z,25.30
2019-04-06T14:02:54.860Z,22.62
2019-04-06T14:11:08.692Z,23.20
2019-04-06T14:16:32.878Z,20.68
2019-04-06T14:19:39.233Z,25.75
2019-04-06T14:25:40.328Z,24.60
2019-04-06T14:31:04.358Z,24.98
2019-04-06T14:36:49.883Z,25.77
2019-04-06T14:43:25.271Z,22.77
2019-04-06T14:46:33.596Z,24.25
2019-04-06T14:49:41.037Z,22.85
2019-04-06T14:52:51.423Z,25.65
2019-04-06T14:56:01.897Z,26.57
2019-04-06T14:58:59.518Z,24.65
2019-04-06T15:02:07.378Z,27.58
2019-04-06T15:05:11.498Z,26.17
2019-04-06T15:10:36.175Z,24.40
2019-04-06T15:16:00.037Z,24.75
2019-04-06T15:19:00.342Z,23.45
2019-04-06T15:22:04.391Z,23.47
2019-04-06T15:27:29.383Z,23.73
2019-04-06T15:32:53.129Z,25.62
2019-04-06T15:41:07.512Z,22.93
2019-04-06T15:46:36.902Z,20.43
2019-04-06T15:49:38.514Z,24.40
2019-04-06T15:52:50.440Z,24.57
2019-04-06T15:55:52.076Z,20.77
2019-04-06T15:58:46.071Z,21.00
2019-04-06T16:02:01.614Z,21.20
2019-04-06T16:05:04.030Z,22.75
2019-04-06T16:08:07.205Z,18.92
2019-04-06T16:10:48.419Z,23.98
2019-04-06T16:13:42.212Z,18.60
2019-04-06T16:16:49.935Z,22.73
2019-04-06T16:32:33.250Z,21.80
2019-04-06T16:38:07.831Z,18.25
2019-04-06T16:41:15.290Z,19.42
2019-04-06T16:44:08.145Z,18.70
2019-04-06T16:50:41.421Z,16.97
2019-04-06T16:53:49.016Z,15.18
2019-04-06T16:56:56.512Z,17.95
2019-04-06T17:00:16.161Z,16.20
2019-04-06T17:03:14.247Z,15.90
2019-04-06T17:06:21.515Z,15.85
2019-04-06T17:09:04.288Z,16.02
2019-04-06T17:11:45.391Z,17.73
2019-04-06T17:14:26.473Z,14.50
2019-04-06T17:19:51.123Z,15.85
2019-04-06T17:22:32.358Z,16.30
2019-04-06T17:25:27.241Z,18.00
2019-04-06T17:28:16.025Z,15.28
2019-04-06T17:31:23.457Z,13.32
2019-04-06T17:34:30.965Z,17.67
2019-04-06T17:37:40.402Z,17.20
2019-04-06T17:40:48.574Z,15.98
2019-04-06T17:43:56.207Z,17.02
2019-04-06T17:46:43.717Z,16.45
2019-04-06T17:49:44.436Z,17.17
2019-04-06T17:52:32.523Z,16.25
2019-04-06T17:55:20.661Z,19.48
2019-04-06T17:57:59.224Z,18.00
2019-04-06T18:00:46.178Z,20.30
2019-04-06T18:03:53.042Z,15.48
2019-04-06T18:06:40.078Z,22.60
2019-04-06T18:09:18.514Z,16.60
2019-04-06T18:12:06.915Z,18.73
2019-04-06T18:14:36.552Z,22.52
2019-04-06T18:17:06.388Z,22.00
2019-04-06T18:19:36.477Z,19.77
2019-04-06T18:22:06.531Z,16.97
2019-04-06T18:24:36.772Z,19.82
2019-04-06T18:27:07.153Z,19.25
2019-04-06T18:29:36.753Z,21.65
2019-04-06T18:32:24.891Z,26.75
2019-04-06T18:34:53.741Z,22.65
2019-04-06T18:37:42.427Z,20.62
2019-04-06T18:40:26.210Z,22.02
2019-04-06T18:42:56.225Z,21.15
2019-04-06T18:45:27.574Z,20.75
2019-04-06T18:47:57.260Z,22.73
2019-04-06T18:50:34.232Z,18.85
2019-04-06T18:52:58.102Z,19.92
2019-04-06T18:55:27.766Z,18.42
2019-04-06T18:58:08.821Z,18.92
2019-04-06T19:00:28.995Z,17.92
2019-04-06T19:03:10.796Z,18.77
2019-04-06T19:05:30.434Z,17.67
2019-04-06T19:08:00.143Z,23.27
2019-04-06T19:10:29.626Z,21.48
2019-04-06T19:12:59.195Z,25.75
2019-04-06T19:15:28.718Z,20.02
2019-04-06T19:17:58.203Z,19.87
2019-04-06T19:20:27.728Z,19.17
2019-04-06T19:22:57.777Z,21.75
2019-04-06T19:25:27.428Z,20.67
2019-04-06T19:27:56.955Z,23.15
2019-04-06T19:30:28.625Z,22.97
2019-04-06T19:32:58.853Z,21.87
2019-04-06T19:35:28.499Z,19.90
2019-04-06T19:37:58.382Z,20.57
2019-04-06T19:40:28.186Z,20.13
2019-04-06T19:42:57.779Z,21.10
2019-04-06T19:45:27.766Z,23.27
2019-04-06T19:47:57.326Z,23.40
2019-04-06T19:50:27.146Z,22.20
2019-04-06T19:52:56.820Z,19.85
2019-04-06T19:55:26.389Z,21.70
2019-04-06T19:57:56.038Z,19.57
2019-04-06T20:00:25.821Z,21.75
2019-04-06T20:02:55.388Z,23.50
2019-04-06T20:05:25.159Z,22.58
2019-04-06T20:07:54.702Z,21.30
2019-04-06T20:10:24.170Z,23.18
2019-04-06T20:12:53.766Z,22.73
2019-04-06T20:15:23.441Z,24.53
2019-04-06T20:17:53.034Z,23.97
2019-04-06T20:20:22.531Z,23.00
2019-04-06T20:22:51.985Z,23.30
2019-04-06T20:25:21.518Z,20.85
2019-04-06T20:27:51.106Z,25.00
2019-04-06T20:30:20.697Z,23.60
2019-04-06T20:32:50.191Z,21.40
2019-04-06T20:35:20.190Z,21.67
2019-04-06T20:37:50.066Z,19.82
2019-04-06T20:40:19.907Z,26.57
2019-04-06T20:42:49.921Z,23.30
2019-04-06T20:45:19.486Z,22.20
2019-04-06T20:47:49.527Z,23.37
2019-04-06T20:50:19.418Z,22.30
2019-04-06T20:52:49.153Z,21.63
2019-04-06T20:55:18.970Z,21.87
2019-04-06T20:57:48.482Z,22.27
2019-04-06T21:00:18.766Z,23.00
2019-04-06T21:02:48.662Z,20.13
2019-04-06T21:05:18.474Z,21.27
2019-04-06T21:07:48.490Z,27.73
2019-04-06T21:10:18.091Z,20.60
2019-04-06T21:12:47.649Z,20.13
2019-04-06T21:15:20.970Z,19.73
2019-04-06T21:17:48.332Z,21.27
2019-04-06T21:20:18.335Z,21.60
2019-04-06T21:22:47.908Z,18.93
2019-04-06T21:25:19.071Z,21.27
2019-04-06T21:27:48.931Z,24.18
2019-04-06T21:30:18.631Z,20.65
2019-04-06T21:32:48.870Z,23.70
2019-04-06T21:35:18.896Z,27.77
2019-04-06T21:37:49.245Z,23.62
2019-04-06T21:40:19.855Z,24.02
2019-04-06T21:42:49.477Z,19.33
2019-04-06T21:45:19.609Z,19.83
2019-04-06T21:47:49.554Z,23.35
2019-04-06T21:50:19.116Z,20.82
2019-04-06T21:52:49.587Z,22.82
2019-04-06T21:55:19.492Z,24.60
2019-04-06T21:57:49.119Z,26.97
2019-04-06T22:00:32.162Z,21.70
2019-04-06T22:03:01.714Z,22.27
2019-04-06T22:05:31.668Z,21.77
2019-04-06T22:08:01.272Z,19.48
2019-04-06T22:10:31.513Z,21.95
2019-04-06T22:13:01.112Z,21.90
2019-04-06T22:15:30.573Z,21.25
2019-04-06T22:18:00.125Z,20.00
2019-04-06T22:20:29.821Z,21.57
2019-04-06T22:22:59.391Z,22.75
2019-04-06T22:25:29.019Z,24.20
2019-04-06T22:27:58.496Z,24.17
2019-04-06T22:30:28.060Z,23.63
2019-04-06T22:32:57.570Z,24.47
2019-04-06T22:35:27.035Z,26.43
2019-04-06T22:37:56.547Z,22.87
2019-04-06T22:40:26.107Z,24.32
2019-04-06T22:42:56.084Z,23.80
2019-04-06T22:45:26.932Z,25.77
2019-04-06T22:47:56.478Z,23.37
2019-04-06T22:50:26.003Z,25.13
2019-04-06T22:52:56.046Z,24.77
2019-04-06T22:55:25.610Z,26.00
2019-04-06T22:57:55.683Z,26.73
2019-04-06T23:00:32.136Z,27.07
2019-04-06T23:03:26.545Z,23.25
2019-04-06T23:05:59.603Z,24.80
2019-04-06T23:08:29.151Z,25.50
2019-04-06T23:10:58.591Z,28.10
2019-04-06T23:13:28.153Z,28.07
2019-04-06T23:15:57.720Z,22.77
2019-04-06T23:18:27.539Z,26.67
2019-04-06T23:20:57.558Z,26.95
2019-04-06T23:23:27.190Z,28.77
2019-04-06T23:25:56.732Z,24.40
2019-04-06T23:28:26.290Z,26.90
2019-04-06T23:30:55.756Z,26.27
2019-04-06T23:33:25.448Z,29.30
2019-04-06T23:35:55.047Z,27.10
2019-04-06T23:38:25.302Z,23.57
2019-04-06T23:40:54.857Z,25.68
2019-04-06T23:43:24.416Z,25.60
2019-04-06T23:45:53.864Z,27.90
2019-04-06T23:48:23.367Z,24.47
2019-04-06T23:50:53.625Z,23.93
2019-04-06T23:53:30.481Z,26.80
2019-04-06T23:55:59.933Z,26.93
2019-04-06T23:58:29.685Z,24.90
